Time;durP1;ratioP1;P1;durP2;ratioP2;P2;SDS_P1;SDS_P2;PMS_P1;PMS_P2;Temp;Humidity;BMP_temperature;BMP_pressure;BME280_temperature;BME280_humidity;BME280_pressure;Samples;Min_cycle;Max_cycle;Signal;HPM_P1;HPM_P2
2021/12/28 00:00:15;;;;;;;2.40;2.17;;;3.00;99.90;;;;;;5087632;28;20445;-86
2021/12/28 00:02:45;;;;;;;2.70;2.07;;;3.00;99.90;;;;;;5086579;28;20469;-85
2021/12/28 00:05:13;;;;;;;2.33;1.67;;;3.00;99.90;;;;;;5087919;28;20472;-86
2021/12/28 00:07:40;;;;;;;1.37;1.27;;;3.10;99.90;;;;;;5088112;28;20436;-86
2021/12/28 00:10:11;;;;;;;5.27;3.87;;;3.10;99.90;;;;;;5085457;28;20437;-86
2021/12/28 00:12:39;;;;;;;9.13;5.70;;;3.10;99.90;;;;;;5086948;28;20482;-86
2021/12/28 00:15:30;;;;;;;7.37;6.07;;;3.10;99.90;;;;;;5089263;28;20448;-86
2021/12/28 00:18:03;;;;;;;7.63;5.67;;;2.90;99.90;;;;;;5087229;28;20446;-86
2021/12/28 00:20:31;;;;;;;10.17;8.60;;;2.80;99.90;;;;;;5086287;28;20547;-86
2021/12/28 00:22:59;;;;;;;6.70;5.23;;;2.80;99.90;;;;;;5091013;28;20488;-86
2021/12/28 00:25:27;;;;;;;7.73;4.53;;;2.60;99.90;;;;;;5086150;28;20446;-84
2021/12/28 00:27:54;;;;;;;6.57;4.13;;;2.50;99.90;;;;;;5088272;28;20486;-86
2021/12/28 00:30:23;;;;;;;4.93;3.50;;;2.50;99.90;;;;;;5085820;28;20446;-86
2021/12/28 00:32:53;;;;;;;4.57;2.57;;;2.50;99.90;;;;;;5087026;28;20477;-85
2021/12/28 00:35:21;;;;;;;3.00;2.70;;;2.60;99.90;;;;;;5094391;28;20451;-86
2021/12/28 00:37:48;;;;;;;2.37;1.90;;;2.70;99.90;;;;;;5087039;28;20432;-86
2021/12/28 00:40:16;;;;;;;2.23;1.70;;;2.70;99.90;;;;;;5087717;28;20449;-85
2021/12/28 00:42:43;;;;;;;5.13;3.90;;;2.80;99.90;;;;;;5086499;28;20521;-85
2021/12/28 00:45:10;;;;;;;7.80;4.70;;;2.80;99.90;;;;;;5086224;28;20433;-86
2021/12/28 00:47:39;;;;;;;6.33;5.20;;;2.70;99.90;;;;;;5085042;28;20450;-86
2021/12/28 00:50:07;;;;;;;7.87;5.90;;;2.70;99.90;;;;;;5086316;28;20526;-85
2021/12/28 00:52:35;;;;;;;7.77;6.47;;;2.70;99.90;;;;;;5084031;28;20617;-85
2021/12/28 00:55:04;;;;;;;2.80;1.73;;;2.70;99.90;;;;;;5087036;28;20563;-86
2021/12/28 00:57:31;;;;;;;2.30;1.43;;;2.60;99.90;;;;;;5087424;28;20461;-86
2021/12/28 00:59:58;;;;;;;1.40;1.30;;;2.60;99.90;;;;;;5086198;28;20444;-86
2021/12/28 01:02:25;;;;;;;8.37;6.30;;;2.70;99.90;;;;;;5082918;28;20473;-85
2021/12/28 01:04:54;;;;;;;10.83;7.20;;;2.70;99.90;;;;;;5086852;28;20453;-86
2021/12/28 01:07:21;;;;;;;12.03;7.10;;;2.70;99.90;;;;;;5086174;28;20452;-86
2021/12/28 01:09:48;;;;;;;8.00;5.13;;;2.50;99.90;;;;;;5086118;28;20460;-86
2021/12/28 01:12:15;;;;;;;6.23;5.20;;;2.30;99.90;;;;;;5085690;28;20542;-85
2021/12/28 01:14:42;;;;;;;8.93;6.03;;;2.40;99.90;;;;;;5078743;28;20441;-86
2021/12/28 01:17:09;;;;;;;6.23;5.10;;;2.50;99.90;;;;;;5085758;28;20461;-86
2021/12/28 01:19:36;;;;;;;5.10;3.73;;;2.50;99.90;;;;;;5087706;28;20450;-85
2021/12/28 01:22:05;;;;;;;2.40;2.20;;;2.30;99.90;;;;;;5087917;28;20472;-85
2021/12/28 01:24:33;;;;;;;2.30;2.00;;;2.10;99.90;;;;;;5086095;28;20786;-85
2021/12/28 01:27:00;;;;;;;1.70;1.60;;;2.10;99.90;;;;;;5086243;28;20463;-86
2021/12/28 01:29:27;;;;;;;1.80;1.40;;;2.20;99.90;;;;;;5084862;28;20448;-86
2021/12/28 01:31:55;;;;;;;1.50;1.30;;;2.10;99.90;;;;;;5086033;28;20464;-86
2021/12/28 01:34:22;;;;;;;3.43;2.30;;;2.10;99.90;;;;;;5085257;28;20437;-86
2021/12/28 01:36:50;;;;;;;1.57;1.43;;;2.20;99.90;;;;;;5086920;28;20988;-86
2021/12/28 01:39:18;;;;;;;3.30;2.57;;;2.30;99.90;;;;;;5086232;28;20452;-86
2021/12/28 01:41:45;;;;;;;3.33;3.03;;;2.30;99.90;;;;;;5088975;28;20464;-86
2021/12/28 01:44:13;;;;;;;4.60;2.30;;;2.40;99.90;;;;;;5087067;28;20445;-86
2021/12/28 01:46:40;;;;;;;2.47;2.27;;;2.40;99.90;;;;;;5085765;28;20445;-86
2021/12/28 01:49:09;;;;;;;1.93;1.43;;;2.30;99.90;;;;;;5087068;28;20432;-86
2021/12/28 01:51:37;;;;;;;1.13;1.03;;;2.20;99.90;;;;;;5087522;28;20450;-86
2021/12/28 01:54:06;;;;;;;0.70;0.70;;;2.20;99.90;;;;;;5087830;28;20476;-86
2021/12/28 01:56:38;;;;;;;1.10;0.70;;;2.20;99.90;;;;;;5086761;28;20498;-86
2021/12/28 01:59:06;;;;;;;1.30;1.20;;;2.30;99.90;;;;;;5084979;28;20460;-86
2021/12/28 02:01:34;;;;;;;2.33;2.00;;;2.20;99.90;;;;;;5084798;28;20464;-86
2021/12/28 02:04:01;;;;;;;2.20;1.77;;;2.30;99.90;;;;;;5085588;28;20433;-86
2021/12/28 02:06:28;;;;;;;2.27;2.07;;;2.30;99.90;;;;;;5086249;28;20449;-86
2021/12/28 02:08:56;;;;;;;5.40;2.90;;;2.30;99.90;;;;;;5086512;28;20995;-86
2021/12/28 02:11:23;;;;;;;3.63;2.20;;;2.20;99.90;;;;;;5087507;28;20471;-86
2021/12/28 02:13:52;;;;;;;4.60;2.47;;;2.20;99.90;;;;;;5085505;28;20488;-85
2021/12/28 02:16:19;;;;;;;3.00;2.27;;;2.20;99.90;;;;;;5083653;28;20452;-86
2021/12/28 02:18:46;;;;;;;1.83;1.73;;;2.00;99.90;;;;;;5090401;28;20467;-86
2021/12/28 02:21:15;;;;;;;1.80;1.70;;;1.80;99.90;;;;;;5088560;28;20460;-86
2021/12/28 02:23:44;;;;;;;1.73;1.40;;;1.80;99.90;;;;;;5089876;28;20444;-85
2021/12/28 02:26:11;;;;;;;2.00;1.60;;;1.80;99.90;;;;;;5090810;28;20449;-86
2021/12/28 02:28:38;;;;;;;1.83;1.73;;;1.90;99.90;;;;;;5088836;28;20440;-86
2021/12/28 02:31:06;;;;;;;1.40;1.30;;;2.00;99.90;;;;;;5090127;28;20441;-85
2021/12/28 02:33:36;;;;;;;4.03;2.20;;;2.00;99.90;;;;;;5090181;28;20471;-86
2021/12/28 02:36:05;;;;;;;1.50;1.20;;;2.10;99.90;;;;;;5090326;28;20459;-86
2021/12/28 02:38:34;;;;;;;1.80;1.40;;;2.00;99.90;;;;;;5090344;28;20498;-85
2021/12/28 02:41:01;;;;;;;1.23;1.13;;;2.10;99.90;;;;;;5089174;28;20455;-86
2021/12/28 02:43:29;;;;;;;1.20;1.10;;;2.00;99.90;;;;;;5092957;28;20464;-86
2021/12/28 02:45:58;;;;;;;1.97;1.43;;;2.10;99.90;;;;;;5090742;28;20444;-85
2021/12/28 02:48:26;;;;;;;2.00;1.30;;;2.00;99.90;;;;;;5089563;28;20444;-86
2021/12/28 02:50:57;;;;;;;2.17;1.70;;;2.00;99.90;;;;;;5080762;28;20452;-87
2021/12/28 02:53:24;;;;;;;1.80;1.70;;;1.90;99.90;;;;;;5089775;28;20514;-86
2021/12/28 02:55:54;;;;;;;1.60;1.13;;;1.90;99.90;;;;;;5088032;28;20476;-86
2021/12/28 02:58:26;;;;;;;1.00;0.83;;;2.00;99.90;;;;;;5089015;28;20452;-86
2021/12/28 03:00:55;;;;;;;1.60;1.27;;;1.90;99.90;;;;;;5092526;28;20480;-86
2021/12/28 03:03:25;;;;;;;2.33;1.80;;;1.70;99.90;;;;;;5085636;28;20473;-85
2021/12/28 03:05:56;;;;;;;1.87;1.40;;;1.80;99.90;;;;;;5083590;28;20467;-86
2021/12/28 03:08:25;;;;;;;3.20;1.80;;;1.80;99.90;;;;;;5089280;28;20511;-86
2021/12/28 03:10:55;;;;;;;2.67;1.93;;;1.70;99.90;;;;;;5088925;28;20432;-86
2021/12/28 03:13:24;;;;;;;8.50;4.60;;;1.80;99.90;;;;;;5088683;28;20498;-86
2021/12/28 03:15:52;;;;;;;5.30;4.10;;;1.90;99.90;;;;;;5089950;28;20448;-85
2021/12/28 03:18:19;;;;;;;4.70;4.20;;;1.80;99.90;;;;;;5084852;28;20945;-86
2021/12/28 03:20:47;;;;;;;9.50;3.73;;;1.80;99.90;;;;;;5090983;28;20456;-85
2021/12/28 03:23:15;;;;;;;3.37;3.07;;;1.70;99.90;;;;;;5089874;28;20460;-86
2021/12/28 03:25:43;;;;;;;2.20;2.00;;;1.60;99.90;;;;;;5088413;28;20446;-85
2021/12/28 03:28:17;;;;;;;2.37;2.17;;;1.60;99.90;;;;;;5082260;28;20813;-85
2021/12/28 03:30:44;;;;;;;1.90;1.40;;;1.60;99.90;;;;;;5091036;28;20440;-85
2021/12/28 03:33:11;;;;;;;1.50;1.40;;;1.60;99.90;;;;;;5091133;28;20480;-86
2021/12/28 03:35:39;;;;;;;2.33;1.43;;;1.50;99.90;;;;;;5088898;28;20451;-86
2021/12/28 03:38:06;;;;;;;1.87;1.63;;;1.60;99.90;;;;;;5088873;28;20432;-86
2021/12/28 03:40:34;;;;;;;1.40;1.30;;;1.60;99.90;;;;;;5088929;28;20475;-86
2021/12/28 03:43:01;;;;;;;1.20;1.10;;;1.60;99.90;;;;;;5090211;28;20504;-86
2021/12/28 03:45:29;;;;;;;1.37;1.13;;;1.70;99.90;;;;;;5088128;28;20463;-85
2021/12/28 03:47:57;;;;;;;1.03;0.93;;;1.70;99.90;;;;;;5089205;28;20448;-86
2021/12/28 03:50:25;;;;;;;1.40;1.10;;;1.60;99.90;;;;;;5089783;28;20444;-86
2021/12/28 03:52:54;;;;;;;1.07;0.97;;;1.50;99.90;;;;;;5086264;28;20546;-86
2021/12/28 03:55:21;;;;;;;1.20;1.10;;;1.50;99.90;;;;;;5092202;28;21049;-85
2021/12/28 03:57:49;;;;;;;1.80;1.10;;;1.50;99.90;;;;;;5097400;28;20448;-85
2021/12/28 04:00:17;;;;;;;3.90;2.00;;;1.50;99.90;;;;;;5088201;28;20466;-86
2021/12/28 04:02:46;;;;;;;2.57;2.37;;;1.50;99.90;;;;;;5087982;28;20464;-86
2021/12/28 04:05:16;;;;;;;4.33;3.93;;;0.90;99.90;;;;;;5089895;28;20455;-85
2021/12/28 04:07:43;;;;;;;1.87;1.77;;;0.60;99.90;;;;;;5088688;28;20948;-86
2021/12/28 04:10:12;;;;;;;4.60;2.07;;;0.50;99.90;;;;;;5089677;28;20441;-86
2021/12/28 04:12:41;;;;;;;2.77;1.67;;;0.40;99.90;;;;;;5089530;28;20497;-86
2021/12/28 04:15:10;;;;;;;5.93;2.40;;;0.50;99.90;;;;;;5087043;28;20462;-86
2021/12/28 04:17:38;;;;;;;5.73;3.00;;;0.60;99.90;;;;;;5088084;28;20467;-86
2021/12/28 04:20:09;;;;;;;4.70;2.73;;;0.50;99.90;;;;;;5087865;28;20450;-86
2021/12/28 04:22:37;;;;;;;2.30;2.10;;;0.40;99.90;;;;;;5087631;28;20459;-86
2021/12/28 04:25:04;;;;;;;3.83;2.70;;;0.40;99.90;;;;;;5090330;28;20505;-86
2021/12/28 04:27:31;;;;;;;1.90;1.80;;;0.50;99.90;;;;;;5087761;28;20451;-86
2021/12/28 04:29:58;;;;;;;1.43;1.33;;;0.60;99.90;;;;;;5085749;28;20436;-86
2021/12/28 04:32:26;;;;;;;1.53;1.43;;;0.80;99.90;;;;;;5088005;28;20476;-86
2021/12/28 04:34:53;;;;;;;2.93;1.37;;;0.90;99.90;;;;;;5087433;28;20475;-86
2021/12/28 04:37:21;;;;;;;3.50;2.63;;;1.00;99.90;;;;;;5085998;28;20471;-85
2021/12/28 04:39:48;;;;;;;2.80;2.40;;;0.90;99.90;;;;;;5085350;28;20482;-86
2021/12/28 04:42:15;;;;;;;2.10;1.70;;;0.90;99.90;;;;;;5081984;28;20513;-86
2021/12/28 04:44:42;;;;;;;2.17;1.80;;;1.00;99.90;;;;;;5086287;28;20441;-86
2021/12/28 04:47:10;;;;;;;2.10;2.00;;;0.90;99.90;;;;;;5088755;28;20451;-85
2021/12/28 04:49:36;;;;;;;2.17;1.33;;;0.70;99.90;;;;;;5086664;28;20440;-86
2021/12/28 04:52:05;;;;;;;1.60;1.50;;;0.80;99.90;;;;;;5086687;28;20468;-86
2021/12/28 04:54:33;;;;;;;2.67;2.47;;;1.00;99.90;;;;;;5086679;28;20480;-86
2021/12/28 04:57:00;;;;;;;2.03;1.93;;;1.10;99.90;;;;;;5085081;28;20486;-86
2021/12/28 04:59:27;;;;;;;2.30;2.10;;;0.90;99.90;;;;;;5085468;28;20442;-86
2021/12/28 05:01:54;;;;;;;2.50;1.80;;;0.80;99.90;;;;;;5084450;28;20517;-86
2021/12/28 05:04:21;;;;;;;2.73;2.53;;;1.00;99.90;;;;;;5087871;28;20441;-86
2021/12/28 05:06:48;;;;;;;3.53;2.70;;;1.00;99.90;;;;;;5086478;28;20441;-86
2021/12/28 05:09:18;;;;;;;1.93;1.83;;;1.10;99.90;;;;;;5083231;28;20827;-89
2021/12/28 05:11:48;;;;;;;2.10;1.80;;;1.10;99.90;;;;;;5077695;28;20478;-88
2021/12/28 05:14:17;;;;;;;3.17;1.23;;;1.10;99.90;;;;;;5081245;28;20496;-88
2021/12/28 05:16:44;;;;;;;1.10;1.00;;;1.20;99.90;;;;;;5075849;28;20816;-87
2021/12/28 05:19:12;;;;;;;1.20;1.03;;;1.20;99.90;;;;;;5074431;28;20922;-88
2021/12/28 05:21:39;;;;;;;1.87;0.93;;;1.30;99.90;;;;;;5077049;28;20479;-88
2021/12/28 05:24:07;;;;;;;2.97;2.40;;;1.10;99.90;;;;;;5073767;28;20457;-88
2021/12/28 05:26:34;;;;;;;1.80;1.70;;;1.20;99.90;;;;;;5076453;28;20448;-88
2021/12/28 05:29:03;;;;;;;1.90;1.77;;;1.30;99.90;;;;;;5077736;28;20483;-88
2021/12/28 05:31:30;;;;;;;7.70;7.00;;;1.20;99.90;;;;;;5077755;28;20472;-87
2021/12/28 05:33:58;;;;;;;5.27;4.77;;;1.20;99.90;;;;;;5078712;28;20476;-88
2021/12/28 05:36:25;;;;;;;3.20;3.00;;;1.20;99.90;;;;;;5084580;28;20461;-86
2021/12/28 05:38:53;;;;;;;5.97;5.47;;;1.20;99.90;;;;;;5085787;28;20447;-86
2021/12/28 05:41:21;;;;;;;5.10;4.70;;;1.10;99.90;;;;;;5085878;28;20444;-85
2021/12/28 05:43:48;;;;;;;2.53;2.07;;;0.70;99.90;;;;;;5088113;28;20493;-84
2021/12/28 05:46:16;;;;;;;6.03;3.57;;;0.70;99.90;;;;;;5087240;28;20490;-86
2021/12/28 05:48:43;;;;;;;3.97;2.73;;;0.70;99.90;;;;;;5086174;28;20454;-85
2021/12/28 05:51:10;;;;;;;1.90;1.80;;;0.70;99.90;;;;;;5086995;28;20522;-84
2021/12/28 05:53:37;;;;;;;2.10;1.90;;;0.80;99.90;;;;;;5097710;22;21891;-57
2021/12/28 05:56:04;;;;;;;3.37;2.50;;;0.90;99.90;;;;;;5071346;28;20870;-56
2021/12/28 05:58:31;;;;;;;4.30;3.97;;;1.00;99.90;;;;;;5086809;28;20466;-56
2021/12/28 06:00:59;;;;;;;5.57;5.00;;;1.10;99.90;;;;;;5074254;28;20474;-57
2021/12/28 06:03:27;;;;;;;4.43;4.03;;;1.10;99.90;;;;;;5061921;28;20915;-57
2021/12/28 06:05:54;;;;;;;3.10;2.77;;;1.10;99.90;;;;;;5134920;22;20596;-47
2021/12/28 06:08:21;;;;;;;2.43;2.33;;;1.10;99.90;;;;;;5083654;28;20523;-51
2021/12/28 06:10:48;;;;;;;2.00;1.80;;;1.20;99.90;;;;;;5082562;28;20487;-51
2021/12/28 06:13:15;;;;;;;1.33;1.23;;;1.20;99.90;;;;;;5094712;28;20533;-49
2021/12/28 06:15:42;;;;;;;1.43;1.30;;;1.10;99.90;;;;;;5088722;28;20562;-49
2021/12/28 06:18:09;;;;;;;2.40;2.17;;;1.20;99.90;;;;;;5088423;28;20496;-48
2021/12/28 06:20:37;;;;;;;5.13;4.33;;;1.20;99.90;;;;;;5091864;28;20530;-49
2021/12/28 06:23:04;;;;;;;3.30;3.10;;;1.20;99.90;;;;;;5086215;28;20522;-46
2021/12/28 06:25:32;;;;;;;2.57;2.37;;;1.20;99.90;;;;;;5088768;28;20498;-50
2021/12/28 06:27:58;;;;;;;2.20;2.00;;;1.10;99.90;;;;;;5087340;28;20942;-49
2021/12/28 06:30:25;;;;;;;9.03;6.40;;;1.20;99.90;;;;;;5088584;28;20543;-50
2021/12/28 06:32:52;;;;;;;2.90;2.10;;;1.10;99.90;;;;;;5087863;28;20870;-49
2021/12/28 06:35:19;;;;;;;1.80;1.67;;;0.90;99.90;;;;;;5089507;28;20547;-51
2021/12/28 06:37:47;;;;;;;1.87;1.70;;;0.80;99.90;;;;;;5091981;28;20480;-50
2021/12/28 06:40:14;;;;;;;4.07;3.77;;;1.00;99.90;;;;;;5092934;28;20483;-48
2021/12/28 06:42:41;;;;;;;7.13;4.47;;;1.10;99.90;;;;;;5099301;28;20480;-49
2021/12/28 06:45:09;;;;;;;4.00;3.60;;;1.00;99.90;;;;;;5092776;28;20503;-50
2021/12/28 06:47:37;;;;;;;4.83;2.63;;;1.10;99.90;;;;;;5095114;28;20881;-50
2021/12/28 06:50:06;;;;;;;3.00;2.70;;;1.10;99.90;;;;;;5089990;28;20439;-49
2021/12/28 06:52:34;;;;;;;5.70;4.70;;;1.20;99.90;;;;;;5087841;28;20478;-50
2021/12/28 06:55:02;;;;;;;10.00;7.10;;;1.40;99.90;;;;;;5100208;28;20485;-50
2021/12/28 06:57:29;;;;;;;9.97;5.63;;;1.40;99.90;;;;;;5087929;28;20474;-49
2021/12/28 06:59:56;;;;;;;8.57;5.90;;;0.80;99.90;;;;;;5095684;28;20541;-52
2021/12/28 07:02:23;;;;;;;6.33;4.23;;;0.50;99.90;;;;;;5105300;28;20458;-49
2021/12/28 07:04:52;;;;;;;6.63;5.50;;;0.40;99.90;;;;;;5098786;28;20475;-49
2021/12/28 07:07:19;;;;;;;9.73;6.00;;;0.60;99.90;;;;;;5099417;28;20434;-49
2021/12/28 07:09:46;;;;;;;3.97;3.57;;;0.70;99.90;;;;;;5099693;28;20866;-49
2021/12/28 07:12:15;;;;;;;5.70;4.30;;;0.50;99.90;;;;;;5093105;28;20522;-49
2021/12/28 07:14:42;;;;;;;6.00;3.93;;;0.70;99.90;;;;;;5100932;28;20569;-48
2021/12/28 07:17:08;;;;;;;3.80;3.40;;;0.80;99.90;;;;;;5100862;28;20698;-49
2021/12/28 07:19:35;;;;;;;3.83;3.10;;;1.00;99.90;;;;;;5093377;28;20501;-49
2021/12/28 07:22:03;;;;;;;2.40;2.20;;;1.00;99.90;;;;;;5104182;28;20884;-51
2021/12/28 07:24:30;;;;;;;2.83;2.23;;;1.00;99.90;;;;;;5101388;28;20522;-49
2021/12/28 07:26:57;;;;;;;9.17;4.90;;;1.00;99.90;;;;;;5094496;28;20471;-52
2021/12/28 07:29:26;;;;;;;10.37;8.77;;;1.10;99.90;;;;;;5100945;28;20493;-50
2021/12/28 07:31:52;;;;;;;10.70;8.23;;;1.00;99.90;;;;;;5103152;28;20553;-48
2021/12/28 07:34:19;;;;;;;10.40;7.97;;;1.00;99.90;;;;;;5095212;28;20562;-51
2021/12/28 07:36:47;;;;;;;7.63;6.93;;;1.10;99.90;;;;;;5104203;28;20552;-50
2021/12/28 07:39:14;;;;;;;7.10;5.90;;;0.90;99.90;;;;;;5095132;28;20889;-50
2021/12/28 07:41:41;;;;;;;8.47;6.50;;;0.90;99.90;;;;;;5092866;28;20980;-50
2021/12/28 07:44:08;;;;;;;8.63;7.73;;;1.00;99.90;;;;;;5103138;28;20475;-53
2021/12/28 07:46:36;;;;;;;8.67;7.57;;;1.00;99.90;;;;;;5101407;28;20910;-49
2021/12/28 07:49:03;;;;;;;8.00;5.40;;;0.90;99.90;;;;;;5092591;28;20484;-49
2021/12/28 07:51:30;;;;;;;5.70;4.33;;;0.80;99.90;;;;;;5108084;28;20463;-50
2021/12/28 07:53:57;;;;;;;7.50;4.63;;;0.90;99.90;;;;;;5095142;28;20499;-49
2021/12/28 07:56:24;;;;;;;5.43;4.90;;;1.00;99.90;;;;;;5100041;28;20494;-50
2021/12/28 07:58:51;;;;;;;4.07;3.77;;;1.20;99.90;;;;;;5102760;28;20470;-48
2021/12/28 08:01:18;;;;;;;3.63;2.87;;;1.20;99.90;;;;;;5091026;28;20466;-49
2021/12/28 08:03:46;;;;;;;2.80;2.10;;;1.30;99.90;;;;;;5098359;28;20478;-49
2021/12/28 08:06:13;;;;;;;4.57;3.87;;;1.40;99.90;;;;;;5107270;28;20490;-48
2021/12/28 08:08:40;;;;;;;7.13;6.50;;;1.50;99.90;;;;;;5093315;28;20530;-48
2021/12/28 08:11:07;;;;;;;7.83;6.43;;;1.50;99.90;;;;;;5097519;28;20477;-52
2021/12/28 08:13:34;;;;;;;7.63;6.83;;;1.50;99.90;;;;;;5101292;28;20478;-49
2021/12/28 08:16:01;;;;;;;8.30;6.40;;;1.60;99.90;;;;;;5090669;28;20557;-48
2021/12/28 08:18:28;;;;;;;9.17;6.67;;;1.60;99.90;;;;;;5092271;28;20505;-52
2021/12/28 08:20:56;;;;;;;8.87;6.30;;;1.60;99.90;;;;;;5104163;28;20477;-48
2021/12/28 08:23:23;;;;;;;8.47;7.00;;;1.60;99.90;;;;;;5094204;28;20976;-48
2021/12/28 08:25:51;;;;;;;9.77;7.67;;;1.70;99.90;;;;;;5104673;28;20494;-52
2021/12/28 08:28:18;;;;;;;20.77;14.20;;;1.40;99.90;;;;;;5097321;28;20434;-49
2021/12/28 08:30:45;;;;;;;20.43;14.13;;;1.40;99.90;;;;;;5093167;28;20530;-50
2021/12/28 08:33:12;;;;;;;9.77;7.70;;;1.50;99.90;;;;;;5094880;28;20471;-47
2021/12/28 08:35:40;;;;;;;11.47;8.77;;;1.30;99.90;;;;;;5096169;28;20534;-49
2021/12/28 08:38:10;;;;;;;11.90;8.63;;;1.30;99.90;;;;;;5095890;28;20439;-49
2021/12/28 08:40:38;;;;;;;13.53;10.00;;;1.30;99.90;;;;;;5096958;28;20482;-49
2021/12/28 08:43:05;;;;;;;9.53;7.43;;;1.40;99.90;;;;;;5096145;28;20470;-49
2021/12/28 08:45:33;;;;;;;15.37;11.70;;;1.50;99.90;;;;;;5098568;28;20562;-49
2021/12/28 08:48:00;;;;;;;18.00;13.10;;;1.60;99.90;;;;;;5090833;28;20435;-51
2021/12/28 08:50:27;;;;;;;14.47;11.60;;;1.50;99.90;;;;;;5090083;28;20537;-50
2021/12/28 08:52:55;;;;;;;10.37;9.37;;;1.50;99.90;;;;;;5099488;28;20452;-50
2021/12/28 08:55:24;;;;;;;7.73;6.30;;;1.60;99.90;;;;;;5104796;28;20569;-50
2021/12/28 08:57:52;;;;;;;6.30;4.40;;;1.70;99.90;;;;;;5093078;28;20466;-49
2021/12/28 09:00:22;;;;;;;4.40;3.93;;;1.80;99.90;;;;;;5098359;28;20445;-50
2021/12/28 09:02:49;;;;;;;5.13;3.83;;;1.90;99.90;;;;;;5102721;28;20488;-49
2021/12/28 09:05:16;;;;;;;12.67;11.00;;;2.00;99.90;;;;;;5088148;28;20498;-49
2021/12/28 09:07:43;;;;;;;12.53;11.33;;;2.00;99.90;;;;;;5100006;28;20467;-52
2021/12/28 09:10:10;;;;;;;6.17;5.17;;;2.00;99.90;;;;;;5099674;28;20534;-50
2021/12/28 09:12:38;;;;;;;5.57;4.80;;;2.00;99.90;;;;;;5092038;28;20970;-52
2021/12/28 09:15:07;;;;;;;9.60;7.50;;;2.00;99.90;;;;;;5101447;28;20926;-49
2021/12/28 09:17:34;;;;;;;18.10;12.80;;;2.10;99.90;;;;;;5092278;28;20482;-49
2021/12/28 09:20:01;;;;;;;16.70;13.13;;;2.10;99.90;;;;;;5090714;28;20448;-48
2021/12/28 09:22:28;;;;;;;12.20;10.90;;;2.20;99.90;;;;;;5099791;28;20530;-51
2021/12/28 09:24:55;;;;;;;14.60;11.30;;;2.20;99.90;;;;;;5102158;28;20538;-48
2021/12/28 09:27:22;;;;;;;9.07;7.90;;;2.30;99.90;;;;;;5091007;28;20474;-49
2021/12/28 09:29:50;;;;;;;13.00;9.30;;;2.20;99.90;;;;;;5105174;28;20531;-48
2021/12/28 09:32:20;;;;;;;9.20;7.70;;;1.90;99.90;;;;;;5097315;28;20438;-48
2021/12/28 09:34:49;;;;;;;7.33;6.50;;;1.80;99.90;;;;;;5092586;28;20557;-49
2021/12/28 09:37:16;;;;;;;5.70;5.20;;;1.80;99.90;;;;;;5100674;28;20959;-49
2021/12/28 09:39:43;;;;;;;5.23;4.70;;;1.90;99.90;;;;;;5089502;28;20526;-49
2021/12/28 09:42:11;;;;;;;12.37;8.33;;;1.90;99.90;;;;;;5088923;28;20478;-48
2021/12/28 09:44:38;;;;;;;9.50;7.60;;;2.00;99.90;;;;;;5105329;28;20476;-49
2021/12/28 09:47:08;;;;;;;7.83;6.97;;;2.10;99.90;;;;;;5094069;28;20513;-50
2021/12/28 09:49:35;;;;;;;10.63;8.10;;;2.20;99.90;;;;;;5093665;28;20448;-48
2021/12/28 09:52:05;;;;;;;7.80;7.10;;;2.20;99.90;;;;;;5094271;28;20862;-49
2021/12/28 09:54:34;;;;;;;7.20;6.50;;;2.10;99.90;;;;;;5098690;28;20493;-49
2021/12/28 09:57:02;;;;;;;6.90;6.20;;;2.20;99.90;;;;;;5094296;28;20452;-48
2021/12/28 09:59:29;;;;;;;5.67;5.03;;;2.30;99.90;;;;;;5105815;28;20466;-50
2021/12/28 10:01:58;;;;;;;5.00;4.60;;;2.40;99.90;;;;;;5089112;28;20978;-50
2021/12/28 10:04:27;;;;;;;7.53;6.57;;;2.50;99.90;;;;;;5098612;28;20483;-49
2021/12/28 10:07:12;;;;;;;33.67;22.33;;;2.60;99.90;;;;;;5101235;28;20538;-52
2021/12/28 10:09:38;;;;;;;7.57;6.10;;;2.70;99.90;;;;;;5090423;28;21005;-51
2021/12/28 10:12:06;;;;;;;7.30;6.60;;;2.70;99.90;;;;;;5094589;28;20527;-49
2021/12/28 10:14:33;;;;;;;19.30;15.40;;;2.80;99.90;;;;;;5108120;28;20470;-48
2021/12/28 10:17:03;;;;;;;10.67;9.17;;;2.90;99.90;;;;;;5086107;28;20472;-50
2021/12/28 10:19:34;;;;;;;8.70;6.97;;;2.90;99.90;;;;;;5092399;28;20449;-50
2021/12/28 10:22:31;;;;;;;7.33;6.60;;;3.00;99.90;;;;;;5101409;28;20435;-51
2021/12/28 10:25:02;;;;;;;6.83;6.17;;;2.90;99.90;;;;;;5091504;28;20551;-50
2021/12/28 10:27:31;;;;;;;10.90;7.50;;;3.00;99.90;;;;;;5092429;28;20480;-50
2021/12/28 10:30:05;;;;;;;9.73;6.90;;;3.00;99.90;;;;;;5096666;28;20478;-52
2021/12/28 10:32:33;;;;;;;27.10;22.27;;;3.10;99.90;;;;;;5097808;28;20463;-53
2021/12/28 10:35:04;;;;;;;18.67;16.03;;;3.00;99.90;;;;;;5091698;28;20484;-50
2021/12/28 10:37:34;;;;;;;30.33;25.90;;;3.10;99.90;;;;;;5099679;28;20472;-50
2021/12/28 10:40:03;;;;;;;15.73;13.80;;;3.20;99.90;;;;;;5093598;28;20470;-50
2021/12/28 10:42:49;;;;;;;6.80;5.50;;;3.30;99.90;;;;;;5093915;28;20520;-52
2021/12/28 10:45:20;;;;;;;8.00;7.20;;;3.30;99.90;;;;;;5100860;28;20922;-49
2021/12/28 10:47:48;;;;;;;7.43;6.60;;;3.40;99.90;;;;;;5100378;28;20858;-49
2021/12/28 10:50:34;;;;;;;5.77;5.10;;;3.50;99.90;;;;;;5095023;28;20530;-50
2021/12/28 10:53:24;;;;;;;5.13;4.57;;;3.60;99.90;;;;;;5095720;28;20448;-52
2021/12/28 10:55:56;;;;;;;6.30;5.70;;;3.60;99.90;;;;;;5105059;28;20910;-49
2021/12/28 10:58:30;;;;;;;6.40;4.00;;;3.60;99.90;;;;;;5091772;28;20476;-48
2021/12/28 11:01:02;;;;;;;5.13;4.63;;;3.70;99.90;;;;;;5093540;28;20489;-49
2021/12/28 11:03:34;;;;;;;5.87;5.37;;;3.80;99.90;;;;;;5107323;28;20874;-50
2021/12/28 11:06:09;;;;;;;9.63;7.23;;;3.80;99.90;;;;;;5096604;28;20459;-50
2021/12/28 11:08:36;;;;;;;5.03;4.53;;;3.70;99.90;;;;;;5099197;28;20860;-49
2021/12/28 11:11:07;;;;;;;5.90;5.10;;;3.70;99.90;;;;;;5103513;28;20470;-50
2021/12/28 11:13:35;;;;;;;11.80;8.90;;;3.70;99.90;;;;;;5091423;28;20519;-50
2021/12/28 11:16:04;;;;;;;6.70;6.00;;;3.80;99.90;;;;;;5092344;28;20477;-50
2021/12/28 11:18:34;;;;;;;5.60;4.50;;;3.80;99.90;;;;;;5097370;28;20480;-51
2021/12/28 11:21:11;;;;;;;5.80;5.30;;;3.90;99.90;;;;;;5093642;28;20454;-50
2021/12/28 11:23:38;;;;;;;8.40;6.53;;;3.90;99.90;;;;;;5092615;28;20458;-49
2021/12/28 11:26:09;;;;;;;6.47;5.87;;;3.90;99.90;;;;;;5097436;28;21004;-51
2021/12/28 11:28:38;;;;;;;7.27;6.67;;;3.80;99.90;;;;;;5092145;28;20528;-49
2021/12/28 11:31:09;;;;;;;5.13;3.10;;;3.80;99.90;;;;;;5095180;28;20480;-51
2021/12/28 11:33:49;;;;;;;4.50;4.10;;;3.90;99.90;;;;;;5094120;28;20974;-50
2021/12/28 11:36:21;;;;;;;3.40;2.70;;;4.00;99.90;;;;;;5092611;28;20519;-49
2021/12/28 11:38:48;;;;;;;6.17;4.53;;;4.10;99.90;;;;;;5094483;28;20512;-49
2021/12/28 11:41:16;;;;;;;10.87;8.77;;;4.20;99.90;;;;;;5095893;28;20473;-48
2021/12/28 11:43:44;;;;;;;6.37;5.77;;;4.20;99.90;;;;;;5094643;28;20525;-48
2021/12/28 11:46:12;;;;;;;12.10;8.90;;;4.30;99.90;;;;;;5090901;28;20520;-49
2021/12/28 11:48:39;;;;;;;21.80;12.60;;;4.30;99.90;;;;;;5092610;28;20996;-50
2021/12/28 11:51:07;;;;;;;8.90;7.50;;;4.20;99.90;;;;;;5092506;28;20472;-50
2021/12/28 11:53:39;;;;;;;10.50;6.40;;;4.20;99.90;;;;;;5099471;28;20484;-50
2021/12/28 11:56:09;;;;;;;105.80;50.67;;;4.20;99.90;;;;;;5104316;28;20481;-49
2021/12/28 11:59:04;;;;;;;72.00;37.50;;;4.00;99.90;;;;;;5092573;28;21200;-50
2021/12/28 12:01:40;;;;;;;98.83;43.60;;;4.00;99.90;;;;;;5097151;28;20443;-48
2021/12/28 12:07:39;;;;;;;27.93;16.23;;;4.00;99.90;;;;;;5029289;28;20465;-51
2021/12/28 12:10:30;;;;;;;6.37;5.77;;;4.10;99.90;;;;;;5025684;28;20558;-49
2021/12/28 12:13:23;;;;;;;60.83;36.33;;;4.10;99.90;;;;;;5072505;28;20960;-49
2021/12/28 12:15:53;;;;;;;24.63;16.17;;;4.10;99.90;;;;;;5082591;28;20575;-49
2021/12/28 12:18:23;;;;;;;20.83;13.83;;;4.10;99.90;;;;;;5101377;28;20496;-51
2021/12/28 12:20:57;;;;;;;12.40;10.43;;;4.10;99.90;;;;;;5094644;28;20488;-51
2021/12/28 12:23:28;;;;;;;14.20;9.13;;;4.10;99.90;;;;;;5098964;28;20474;-51
2021/12/28 12:26:00;;;;;;;12.00;9.43;;;4.00;99.90;;;;;;5100608;28;20487;-52
2021/12/28 12:28:49;;;;;;;10.33;9.30;;;3.90;99.90;;;;;;5092078;28;20529;-50
2021/12/28 12:31:31;;;;;;;11.43;8.17;;;3.90;99.90;;;;;;5094157;28;20528;-50
2021/12/28 12:34:00;;;;;;;13.67;8.93;;;3.90;99.90;;;;;;5101413;28;20474;-50
2021/12/28 12:36:38;;;;;;;6.20;5.70;;;3.90;99.90;;;;;;5090364;28;20484;-51
2021/12/28 12:39:06;;;;;;;5.83;5.13;;;3.90;99.90;;;;;;5094941;28;20449;-50
2021/12/28 12:41:45;;;;;;;3.73;2.70;;;4.10;99.90;;;;;;5100197;28;20478;-50
2021/12/28 12:44:15;;;;;;;3.40;3.03;;;4.30;99.90;;;;;;5096127;28;20443;-50
2021/12/28 12:46:46;;;;;;;3.77;3.07;;;4.40;99.90;;;;;;5095949;28;20519;-52
2021/12/28 12:49:23;;;;;;;4.70;3.07;;;4.40;99.90;;;;;;5099359;28;20446;-53
2021/12/28 12:52:03;;;;;;;6.27;4.63;;;4.40;99.90;;;;;;5093797;28;20853;-50
2021/12/28 12:54:40;;;;;;;7.53;5.13;;;4.50;99.90;;;;;;5093005;28;20437;-52
2021/12/28 12:57:17;;;;;;;9.80;7.37;;;4.50;99.90;;;;;;5104889;28;20603;-50
2021/12/28 12:59:52;;;;;;;7.47;6.80;;;4.30;99.90;;;;;;5100452;28;20459;-50
2021/12/28 13:02:31;;;;;;;8.87;6.57;;;4.30;99.90;;;;;;5092335;28;21173;-50
2021/12/28 13:05:10;;;;;;;6.30;5.70;;;4.30;99.90;;;;;;5085519;28;20899;-51
2021/12/28 13:07:38;;;;;;;12.40;10.50;;;4.30;99.90;;;;;;5101678;28;20470;-49